sensor_id;sensor_type;location;lat;lon;timestamp;pressure;altitude;pressure_sealevel;temperature;humidity
51287;BME280;37364;46.974;18.916;2024-01-15T00:00:06;149506.66;;;-3.39;100.00
51287;BME280;37364;46.974;18.916;2024-01-15T00:02:36;149498.94;;;-3.42;100.00
51287;BME280;37364;46.974;18.916;2024-01-15T00:05:06;149486.13;;;-3.47;100.00
51287;BME280;37364;46.974;18.916;2024-01-15T00:07:37;149481.00;;;-3.49;100.00
51287;BME280;37364;46.974;18.916;2024-01-15T00:10:07;149465.63;;;-3.55;100.00
51287;BME280;37364;46.974;18.916;2024-01-15T00:12:37;149454.13;;;-3.60;100.00
51287;BME280;37364;46.974;18.916;2024-01-15T00:15:10;149442.56;;;-3.65;100.00
51287;BME280;37364;46.974;18.916;2024-01-15T00:17:40;149432.34;;;-3.69;100.00
51287;BME280;37364;46.974;18.916;2024-01-15T00:20:11;149431.06;;;-3.69;100.00
51287;BME280;37364;46.974;18.916;2024-01-15T00:22:41;149423.38;;;-3.72;100.00
51287;BME280;37364;46.974;18.916;2024-01-15T00:25:11;149409.31;;;-3.78;100.00
51287;BME280;37364;46.974;18.916;2024-01-15T00:27:41;149413.13;;;-3.77;100.00
51287;BME280;37364;46.974;18.916;2024-01-15T00:30:14;149411.88;;;-3.77;100.00
51287;BME280;37364;46.974;18.916;2024-01-15T00:32:44;149399.09;;;-3.82;100.00
51287;BME280;37364;46.974;18.916;2024-01-15T00:35:15;149383.69;;;-3.88;100.00
51287;BME280;37364;46.974;18.916;2024-01-15T00:37:45;149367.06;;;-3.95;100.00
51287;BME280;37364;46.974;18.916;2024-01-15T00:40:15;149368.34;;;-3.94;100.00
51287;BME280;37364;46.974;18.916;2024-01-15T00:42:45;149350.44;;;-4.02;100.00
51287;BME280;37364;46.974;18.916;2024-01-15T00:45:18;149350.44;;;-4.02;100.00
51287;BME280;37364;46.974;18.916;2024-01-15T00:47:48;149329.91;;;-4.10;100.00
51287;BME280;37364;46.974;18.916;2024-01-15T00:50:19;149322.28;;;-4.13;100.00
51287;BME280;37364;46.974;18.916;2024-01-15T00:52:49;149313.31;;;-4.17;100.00
51287;BME280;37364;46.974;18.916;2024-01-15T00:55:19;149301.81;;;-4.21;100.00
51287;BME280;37364;46.974;18.916;2024-01-15T00:57:49;149300.47;;;-4.22;100.00
51287;BME280;37364;46.974;18.916;2024-01-15T01:00:22;149294.09;;;-4.24;100.00
51287;BME280;37364;46.974;18.916;2024-01-15T01:02:52;149283.88;;;-4.28;100.00
51287;BME280;37364;46.974;18.916;2024-01-15T01:05:22;149286.41;;;-4.27;100.00
51287;BME280;37364;46.974;18.916;2024-01-15T01:07:52;149291.56;;;-4.25;100.00
51287;BME280;37364;46.974;18.916;2024-01-15T01:10:22;149288.97;;;-4.26;100.00
51287;BME280;37364;46.974;18.916;2024-01-15T01:12:52;149288.97;;;-4.26;100.00
51287;BME280;37364;46.974;18.916;2024-01-15T01:15:25;149290.25;;;-4.26;100.00
51287;BME280;37364;46.974;18.916;2024-01-15T01:17:55;149290.25;;;-4.26;100.00
51287;BME280;37364;46.974;18.916;2024-01-15T01:20:26;149285.13;;;-4.28;100.00
51287;BME280;37364;46.974;18.916;2024-01-15T01:22:56;149297.94;;;-4.23;100.00
51287;BME280;37364;46.974;18.916;2024-01-15T01:25:27;149326.13;;;-4.11;100.00
51287;BME280;37364;46.974;18.916;2024-01-15T01:27:57;149332.50;;;-4.09;100.00
51287;BME280;37364;46.974;18.916;2024-01-15T01:30:32;149382.41;;;-3.89;100.00
51287;BME280;37364;46.974;18.916;2024-01-15T01:33:03;149441.31;;;-3.65;100.00
51287;BME280;37364;46.974;18.916;2024-01-15T01:35:33;149463.09;;;-3.56;100.00
51287;BME280;37364;46.974;18.916;2024-01-15T01:38:03;149496.34;;;-3.43;100.00
51287;BME280;37364;46.974;18.916;2024-01-15T01:40:33;149495.09;;;-3.44;100.00
51287;BME280;37364;46.974;18.916;2024-01-15T01:43:04;149501.47;;;-3.41;100.00
51287;BME280;37364;46.974;18.916;2024-01-15T01:45:38;149527.13;;;-3.31;100.00
51287;BME280;37364;46.974;18.916;2024-01-15T01:48:11;149543.75;;;-3.24;100.00
51287;BME280;37364;46.974;18.916;2024-01-15T01:50:41;149588.59;;;-3.06;100.00
51287;BME280;37364;46.974;18.916;2024-01-15T01:53:11;149561.72;;;-3.17;100.00
51287;BME280;37364;46.974;18.916;2024-01-15T01:55:42;149568.09;;;-3.14;100.00
51287;BME280;37364;46.974;18.916;2024-01-15T01:58:11;149568.09;;;-3.14;100.00
51287;BME280;37364;46.974;18.916;2024-01-15T02:00:44;149587.31;;;-3.07;100.00
51287;BME280;37364;46.974;18.916;2024-01-15T02:03:16;149575.81;;;-3.11;100.00
51287;BME280;37364;46.974;18.916;2024-01-15T02:05:48;149557.88;;;-3.19;100.00
51287;BME280;37364;46.974;18.916;2024-01-15T02:08:18;149550.16;;;-3.22;100.00
51287;BME280;37364;46.974;18.916;2024-01-15T02:10:48;149550.16;;;-3.22;100.00
51287;BME280;37364;46.974;18.916;2024-01-15T02:13:19;149547.63;;;-3.23;100.00
51287;BME280;37364;46.974;18.916;2024-01-15T02:15:52;149556.59;;;-3.19;100.00
51287;BME280;37364;46.974;18.916;2024-01-15T02:18:23;149561.72;;;-3.17;100.00
51287;BME280;37364;46.974;18.916;2024-01-15T02:20:53;149554.00;;;-3.20;100.00
51287;BME280;37364;46.974;18.916;2024-01-15T02:23:25;149555.28;;;-3.20;100.00
51287;BME280;37364;46.974;18.916;2024-01-15T02:25:55;149546.34;;;-3.23;100.00
51287;BME280;37364;46.974;18.916;2024-01-15T02:28:25;149552.75;;;-3.21;100.00
51287;BME280;37364;46.974;18.916;2024-01-15T02:30:56;149550.16;;;-3.22;100.00
51287;BME280;37364;46.974;18.916;2024-01-15T02:33:26;149560.41;;;-3.18;100.00
51287;BME280;37364;46.974;18.916;2024-01-15T02:35:56;149551.47;;;-3.21;100.00
51287;BME280;37364;46.974;18.916;2024-01-15T02:38:29;149551.47;;;-3.21;100.00
51287;BME280;37364;46.974;18.916;2024-01-15T02:40:59;149555.28;;;-3.20;100.00
51287;BME280;37364;46.974;18.916;2024-01-15T02:43:29;149537.38;;;-3.27;100.00
51287;BME280;37364;46.974;18.916;2024-01-15T02:45:59;149551.47;;;-3.21;100.00
51287;BME280;37364;46.974;18.916;2024-01-15T02:48:29;149552.75;;;-3.21;100.00
51287;BME280;37364;46.974;18.916;2024-01-15T02:51:00;149545.03;;;-3.24;100.00
51287;BME280;37364;46.974;18.916;2024-01-15T02:53:33;149555.28;;;-3.20;100.00
51287;BME280;37364;46.974;18.916;2024-01-15T02:56:03;149557.88;;;-3.19;100.00
51287;BME280;37364;46.974;18.916;2024-01-15T02:58:33;149556.59;;;-3.19;100.00
51287;BME280;37364;46.974;18.916;2024-01-15T03:01:04;149545.03;;;-3.24;100.00
51287;BME280;37364;46.974;18.916;2024-01-15T03:03:34;149548.88;;;-3.22;100.00
51287;BME280;37364;46.974;18.916;2024-01-15T03:06:04;149539.91;;;-3.26;100.00
51287;BME280;37364;46.974;18.916;2024-01-15T03:08:37;149543.75;;;-3.24;100.00
51287;BME280;37364;46.974;18.916;2024-01-15T03:11:07;149556.59;;;-3.19;100.00
51287;BME280;37364;46.974;18.916;2024-01-15T03:13:37;149575.81;;;-3.11;100.00
51287;BME280;37364;46.974;18.916;2024-01-15T03:16:07;149560.41;;;-3.18;100.00
51287;BME280;37364;46.974;18.916;2024-01-15T03:18:37;149570.69;;;-3.13;100.00
51287;BME280;37364;46.974;18.916;2024-01-15T03:21:07;149584.75;;;-3.08;100.00
51287;BME280;37364;46.974;18.916;2024-01-15T03:23:40;149589.91;;;-3.06;100.00
51287;BME280;37364;46.974;18.916;2024-01-15T03:26:10;149601.41;;;-3.01;100.00
51287;BME280;37364;46.974;18.916;2024-01-15T03:28:40;149606.53;;;-2.99;100.00
51287;BME280;37364;46.974;18.916;2024-01-15T03:31:10;149633.44;;;-2.88;100.00
51287;BME280;37364;46.974;18.916;2024-01-15T03:33:40;149650.09;;;-2.82;100.00
51287;BME280;37364;46.974;18.916;2024-01-15T03:36:10;149657.78;;;-2.79;100.00
51287;BME280;37364;46.974;18.916;2024-01-15T03:38:43;149650.09;;;-2.82;100.00
51287;BME280;37364;46.974;18.916;2024-01-15T03:41:13;149650.09;;;-2.82;100.00
51287;BME280;37364;46.974;18.916;2024-01-15T03:43:43;149669.34;;;-2.74;100.00
51287;BME280;37364;46.974;18.916;2024-01-15T03:46:13;149680.84;;;-2.69;100.00
51287;BME280;37364;46.974;18.916;2024-01-15T03:48:43;149674.47;;;-2.72;100.00
51287;BME280;37364;46.974;18.916;2024-01-15T03:51:15;149694.94;;;-2.64;100.00
51287;BME280;37364;46.974;18.916;2024-01-15T03:53:48;149709.06;;;-2.58;100.00
51287;BME280;37364;46.974;18.916;2024-01-15T03:56:18;149709.06;;;-2.58;100.00
51287;BME280;37364;46.974;18.916;2024-01-15T03:58:47;149721.84;;;-2.53;100.00
51287;BME280;37364;46.974;18.916;2024-01-15T04:01:17;149705.19;;;-2.60;100.00
51287;BME280;37364;46.974;18.916;2024-01-15T04:03:48;149701.34;;;-2.61;100.00
51287;BME280;37364;46.974;18.916;2024-01-15T04:06:18;149696.22;;;-2.63;100.00
51287;BME280;37364;46.974;18.916;2024-01-15T04:08:50;149692.38;;;-2.65;100.00
51287;BME280;37364;46.974;18.916;2024-01-15T04:11:21;149689.81;;;-2.66;100.00
51287;BME280;37364;46.974;18.916;2024-01-15T04:13:52;149685.97;;;-2.67;100.00
51287;BME280;37364;46.974;18.916;2024-01-15T04:16:22;149692.38;;;-2.65;100.00
51287;BME280;37364;46.974;18.916;2024-01-15T04:18:52;149707.78;;;-2.59;100.00
51287;BME280;37364;46.974;18.916;2024-01-15T04:21:22;149718.03;;;-2.54;100.00
51287;BME280;37364;46.974;18.916;2024-01-15T04:23:54;149714.19;;;-2.56;100.00
51287;BME280;37364;46.974;18.916;2024-01-15T04:26:24;149730.81;;;-2.49;100.00
51287;BME280;37364;46.974;18.916;2024-01-15T04:28:54;149729.56;;;-2.50;100.00
51287;BME280;37364;46.974;18.916;2024-01-15T04:31:25;149734.69;;;-2.48;100.00
51287;BME280;37364;46.974;18.916;2024-01-15T04:33:56;149737.25;;;-2.47;100.00
51287;BME280;37364;46.974;18.916;2024-01-15T04:36:26;149739.81;;;-2.46;100.00
51287;BME280;37364;46.974;18.916;2024-01-15T04:38:58;149739.81;;;-2.46;100.00
51287;BME280;37364;46.974;18.916;2024-01-15T04:41:28;149751.31;;;-2.41;100.00
51287;BME280;37364;46.974;18.916;2024-01-15T04:43:58;149757.75;;;-2.39;100.00
51287;BME280;37364;46.974;18.916;2024-01-15T04:46:29;149764.16;;;-2.36;100.00
51287;BME280;37364;46.974;18.916;2024-01-15T04:48:59;149765.41;;;-2.35;100.00
51287;BME280;37364;46.974;18.916;2024-01-15T04:51:29;149780.84;;;-2.29;100.00
51287;BME280;37364;46.974;18.916;2024-01-15T04:54:02;149777.00;;;-2.31;100.00
51287;BME280;37364;46.974;18.916;2024-01-15T04:56:33;149788.50;;;-2.26;100.00
51287;BME280;37364;46.974;18.916;2024-01-15T04:59:03;149782.13;;;-2.29;100.00
51287;BME280;37364;46.974;18.916;2024-01-15T05:01:33;149788.50;;;-2.26;100.00
51287;BME280;37364;46.974;18.916;2024-01-15T05:04:03;149789.78;;;-2.26;100.00
51287;BME280;37364;46.974;18.916;2024-01-15T05:06:33;149793.63;;;-2.24;100.00
51287;BME280;37364;46.974;18.916;2024-01-15T05:09:06;149798.75;;;-2.22;100.00
51287;BME280;37364;46.974;18.916;2024-01-15T05:11:36;149798.75;;;-2.22;100.00
51287;BME280;37364;46.974;18.916;2024-01-15T05:14:06;149803.88;;;-2.20;100.00
51287;BME280;37364;46.974;18.916;2024-01-15T05:16:38;149809.00;;;-2.18;100.00
51287;BME280;37364;46.974;18.916;2024-01-15T05:19:08;149816.72;;;-2.15;100.00
51287;BME280;37364;46.974;18.916;2024-01-15T05:21:38;149806.47;;;-2.19;100.00
51287;BME280;37364;46.974;18.916;2024-01-15T05:24:11;149800.03;;;-2.22;100.00
51287;BME280;37364;46.974;18.916;2024-01-15T05:26:41;149800.03;;;-2.22;100.00
51287;BME280;37364;46.974;18.916;2024-01-15T05:29:11;149774.41;;;-2.32;100.00
51287;BME280;37364;46.974;18.916;2024-01-15T05:31:41;149770.56;;;-2.33;100.00
51287;BME280;37364;46.974;18.916;2024-01-15T05:34:12;149765.41;;;-2.35;100.00
51287;BME280;37364;46.974;18.916;2024-01-15T05:36:42;149755.19;;;-2.40;100.00
51287;BME280;37364;46.974;18.916;2024-01-15T05:39:17;149742.38;;;-2.45;100.00
51287;BME280;37364;46.974;18.916;2024-01-15T05:41:50;149727.00;;;-2.51;100.00
51287;BME280;37364;46.974;18.916;2024-01-15T05:44:20;149714.19;;;-2.56;100.00
51287;BME280;37364;46.974;18.916;2024-01-15T05:46:50;149688.56;;;-2.66;100.00
51287;BME280;37364;46.974;18.916;2024-01-15T05:49:20;149666.75;;;-2.75;100.00
51287;BME280;37364;46.974;18.916;2024-01-15T05:51:50;149650.09;;;-2.82;100.00
51287;BME280;37364;46.974;18.916;2024-01-15T05:54:23;149634.75;;;-2.88;100.00
51287;BME280;37364;46.974;18.916;2024-01-15T05:56:53;149632.16;;;-2.89;100.00
51287;BME280;37364;46.974;18.916;2024-01-15T05:59:23;149629.63;;;-2.90;100.00
51287;BME280;37364;46.974;18.916;2024-01-15T06:01:53;149609.06;;;-2.98;100.00
51287;BME280;37364;46.974;18.916;2024-01-15T06:04:23;149601.41;;;-3.01;100.00
51287;BME280;37364;46.974;18.916;2024-01-15T06:06:54;149586.06;;;-3.07;100.00
51287;BME280;37364;46.974;18.916;2024-01-15T06:09:27;149573.22;;;-3.12;100.00
51287;BME280;37364;46.974;18.916;2024-01-15T06:11:59;149579.63;;;-3.10;100.00
51287;BME280;37364;46.974;18.916;2024-01-15T06:14:29;149579.63;;;-3.10;100.00
51287;BME280;37364;46.974;18.916;2024-01-15T06:16:59;149575.81;;;-3.11;100.00
51287;BME280;37364;46.974;18.916;2024-01-15T06:19:29;149566.84;;;-3.15;100.00
51287;BME280;37364;46.974;18.916;2024-01-15T06:21:59;149562.97;;;-3.16;100.00
51287;BME280;37364;46.974;18.916;2024-01-15T06:24:32;149569.38;;;-3.14;100.00
51287;BME280;37364;46.974;18.916;2024-01-15T06:27:02;149556.59;;;-3.19;100.00
51287;BME280;37364;46.974;18.916;2024-01-15T06:29:32;149555.28;;;-3.20;100.00
51287;BME280;37364;46.974;18.916;2024-01-15T06:32:03;149541.22;;;-3.25;100.00
51287;BME280;37364;46.974;18.916;2024-01-15T06:34:36;149545.03;;;-3.24;100.00
51287;BME280;37364;46.974;18.916;2024-01-15T06:37:18;149539.91;;;-3.26;100.00
51287;BME280;37364;46.974;18.916;2024-01-15T06:39:51;149533.53;;;-3.28;100.00
51287;BME280;37364;46.974;18.916;2024-01-15T06:42:21;149527.13;;;-3.31;100.00
51287;BME280;37364;46.974;18.916;2024-01-15T06:44:51;149528.41;;;-3.30;100.00
51287;BME280;37364;46.974;18.916;2024-01-15T06:47:22;149538.66;;;-3.26;100.00
51287;BME280;37364;46.974;18.916;2024-01-15T06:49:52;149593.72;;;-3.04;100.00
51287;BME280;37364;46.974;18.916;2024-01-15T06:52:22;149648.84;;;-2.82;100.00
51287;BME280;37364;46.974;18.916;2024-01-15T06:54:55;149629.63;;;-2.90;100.00
51287;BME280;37364;46.974;18.916;2024-01-15T06:57:25;149633.44;;;-2.88;100.00
51287;BME280;37364;46.974;18.916;2024-01-15T06:59:55;149632.16;;;-2.89;100.00
51287;BME280;37364;46.974;18.916;2024-01-15T07:02:25;149657.78;;;-2.79;100.00
51287;BME280;37364;46.974;18.916;2024-01-15T07:04:56;149664.22;;;-2.76;100.00
51287;BME280;37364;46.974;18.916;2024-01-15T07:07:26;149702.66;;;-2.61;100.00
51287;BME280;37364;46.974;18.916;2024-01-15T07:09:59;149744.94;;;-2.44;100.00
51287;BME280;37364;46.974;18.916;2024-01-15T07:12:30;149738.53;;;-2.46;100.00
51287;BME280;37364;46.974;18.916;2024-01-15T07:15:00;149773.13;;;-2.32;100.00
51287;BME280;37364;46.974;18.916;2024-01-15T07:17:31;149783.38;;;-2.28;100.00
51287;BME280;37364;46.974;18.916;2024-01-15T07:20:01;149796.22;;;-2.23;100.00
51287;BME280;37364;46.974;18.916;2024-01-15T07:22:31;149809.00;;;-2.18;100.00
51287;BME280;37364;46.974;18.916;2024-01-15T07:25:05;149798.75;;;-2.22;100.00
51287;BME280;37364;46.974;18.916;2024-01-15T07:27:35;149801.34;;;-2.21;100.00
51287;BME280;37364;46.974;18.916;2024-01-15T07:30:06;149788.50;;;-2.26;100.00
51287;BME280;37364;46.974;18.916;2024-01-15T07:32:37;149780.84;;;-2.29;100.00
51287;BME280;37364;46.974;18.916;2024-01-15T07:35:08;149779.53;;;-2.30;100.00
51287;BME280;37364;46.974;18.916;2024-01-15T07:37:38;149785.97;;;-2.27;100.00
51287;BME280;37364;46.974;18.916;2024-01-15T07:40:11;149787.25;;;-2.27;100.00
51287;BME280;37364;46.974;18.916;2024-01-15T07:42:42;149823.13;;;-2.12;100.00
51287;BME280;37364;46.974;18.916;2024-01-15T07:45:12;149826.97;;;-2.11;100.00
51287;BME280;37364;46.974;18.916;2024-01-15T07:47:43;149843.63;;;-2.04;100.00
51287;BME280;37364;46.974;18.916;2024-01-15T07:50:14;149843.63;;;-2.04;100.00
51287;BME280;37364;46.974;18.916;2024-01-15T07:52:45;149835.97;;;-2.07;100.00
51287;BME280;37364;46.974;18.916;2024-01-15T07:55:18;149839.81;;;-2.06;100.00
51287;BME280;37364;46.974;18.916;2024-01-15T07:57:48;149864.19;;;-1.96;100.00
51287;BME280;37364;46.974;18.916;2024-01-15T08:00:32;149888.50;;;-1.86;100.00
51287;BME280;37364;46.974;18.916;2024-01-15T08:03:04;149894.94;;;-1.84;100.00
51287;BME280;37364;46.974;18.916;2024-01-15T08:05:34;149918.03;;;-1.74;100.00
51287;BME280;37364;46.974;18.916;2024-01-15T08:08:05;149932.09;;;-1.69;100.00
51287;BME280;37364;46.974;18.916;2024-01-15T08:10:38;149934.69;;;-1.68;100.00
51287;BME280;37364;46.974;18.916;2024-01-15T08:13:08;149969.31;;;-1.54;100.00
51287;BME280;37364;46.974;18.916;2024-01-15T08:15:38;150010.34;;;-1.37;100.00
51287;BME280;37364;46.974;18.916;2024-01-15T08:18:08;150018.06;;;-1.34;100.00
51287;BME280;37364;46.974;18.916;2024-01-15T08:20:39;150037.31;;;-1.27;100.00
51287;BME280;37364;46.974;18.916;2024-01-15T08:23:10;150050.13;;;-1.22;100.00
51287;BME280;37364;46.974;18.916;2024-01-15T08:25:42;150073.22;;;-1.12;100.00
51287;BME280;37364;46.974;18.916;2024-01-15T08:28:12;150083.50;;;-1.08;100.00
51287;BME280;37364;46.974;18.916;2024-01-15T08:30:43;150088.63;;;-1.06;100.00
51287;BME280;37364;46.974;18.916;2024-01-15T08:33:14;150101.47;;;-1.01;100.00
51287;BME280;37364;46.974;18.916;2024-01-15T08:35:48;150122.00;;;-0.93;100.00
51287;BME280;37364;46.974;18.916;2024-01-15T08:38:18;150139.97;;;-0.86;100.00
51287;BME280;37364;46.974;18.916;2024-01-15T08:40:51;150184.91;;;-0.68;100.00
51287;BME280;37364;46.974;18.916;2024-01-15T08:43:24;150240.09;;;-0.46;100.00
51287;BME280;37364;46.974;18.916;2024-01-15T08:45:54;150391.63;;;0.15;100.00
51287;BME280;37364;46.974;18.916;2024-01-15T08:48:22;150432.72;;;0.31;100.00
51287;BME280;37364;46.974;18.916;2024-01-15T08:50:54;150523.94;;;0.68;100.00
51287;BME280;37364;46.974;18.916;2024-01-15T08:53:24;150556.09;;;0.81;100.00
51287;BME280;37364;46.974;18.916;2024-01-15T08:55:57;150574.06;;;0.88;100.00
51287;BME280;37364;46.974;18.916;2024-01-15T08:58:27;150563.78;;;0.84;100.00
51287;BME280;37364;46.974;18.916;2024-01-15T09:00:57;150548.38;;;0.77;100.00
51287;BME280;37364;46.974;18.916;2024-01-15T09:03:28;150554.78;;;0.80;100.00
51287;BME280;37364;46.974;18.916;2024-01-15T09:05:58;150565.06;;;0.84;100.00
51287;BME280;37364;46.974;18.916;2024-01-15T09:08:28;150545.78;;;0.76;100.00
51287;BME280;37364;46.974;18.916;2024-01-15T09:11:02;150543.22;;;0.75;100.00
51287;BME280;37364;46.974;18.916;2024-01-15T09:13:32;150532.97;;;0.71;100.00
51287;BME280;37364;46.974;18.916;2024-01-15T09:16:03;150523.94;;;0.68;100.00
51287;BME280;37364;46.974;18.916;2024-01-15T09:18:34;150525.22;;;0.68;100.00
51287;BME280;37364;46.974;18.916;2024-01-15T09:21:05;150521.41;;;0.67;100.00
51287;BME280;37364;46.974;18.916;2024-01-15T09:23:35;150504.69;;;0.60;100.00
51287;BME280;37364;46.974;18.916;2024-01-15T09:26:08;150507.25;;;0.61;100.00
51287;BME280;37364;46.974;18.916;2024-01-15T09:28:38;150495.66;;;0.56;100.00
51287;BME280;37364;46.974;18.916;2024-01-15T09:31:08;150486.66;;;0.53;100.00
51287;BME280;37364;46.974;18.916;2024-01-15T09:33:39;150484.13;;;0.52;100.00
51287;BME280;37364;46.974;18.916;2024-01-15T09:36:09;150477.72;;;0.49;100.00
51287;BME280;37364;46.974;18.916;2024-01-15T09:38:40;150494.41;;;0.56;100.00
51287;BME280;37364;46.974;18.916;2024-01-15T09:41:13;150484.13;;;0.52;100.00
51287;BME280;37364;46.974;18.916;2024-01-15T09:43:44;150500.81;;;0.58;100.00
51287;BME280;37364;46.974;18.916;2024-01-15T09:46:15;150509.81;;;0.62;100.00
51287;BME280;37364;46.974;18.916;2024-01-15T09:48:45;150523.94;;;0.68;100.00
51287;BME280;37364;46.974;18.916;2024-01-15T09:51:17;150554.78;;;0.80;100.00
51287;BME280;37364;46.974;18.916;2024-01-15T09:53:48;150567.66;;;0.85;100.00
51287;BME280;37364;46.974;18.916;2024-01-15T09:56:22;150594.63;;;0.96;100.00
51287;BME280;37364;46.974;18.916;2024-01-15T09:58:52;150606.22;;;1.01;100.00
51287;BME280;37364;46.974;18.916;2024-01-15T10:01:24;150633.19;;;1.11;100.00
51287;BME280;37364;46.974;18.916;2024-01-15T10:03:55;150661.47;;;1.23;100.00
51287;BME280;37364;46.974;18.916;2024-01-15T10:06:27;150692.31;;;1.35;100.00
51287;BME280;37364;46.974;18.916;2024-01-15T10:08:58;150701.34;;;1.38;100.00
51287;BME280;37364;46.974;18.916;2024-01-15T10:11:31;150703.94;;;1.40;100.00
51287;BME280;37364;46.974;18.916;2024-01-15T10:14:02;150754.06;;;1.60;100.00
51287;BME280;37364;46.974;18.916;2024-01-15T10:16:32;150766.94;;;1.65;100.00
51287;BME280;37364;46.974;18.916;2024-01-15T10:19:03;150768.22;;;1.65;100.00
51287;BME280;37364;46.974;18.916;2024-01-15T10:21:33;150782.38;;;1.71;100.00
51287;BME280;37364;46.974;18.916;2024-01-15T10:24:05;150804.22;;;1.80;100.00
51287;BME280;37364;46.974;18.916;2024-01-15T10:26:38;150810.63;;;1.82;100.00
51287;BME280;37364;46.974;18.916;2024-01-15T10:29:08;150811.94;;;1.83;100.00
51287;BME280;37364;46.974;18.916;2024-01-15T10:31:39;150819.63;;;1.86;100.00
51287;BME280;37364;46.974;18.916;2024-01-15T10:34:10;150828.66;;;1.89;100.00
51287;BME280;37364;46.974;18.916;2024-01-15T10:36:45;150832.53;;;1.91;100.00
51287;BME280;37364;46.974;18.916;2024-01-15T10:39:22;150836.41;;;1.92;100.00
51287;BME280;37364;46.974;18.916;2024-01-15T10:41:56;150829.94;;;1.90;100.00
51287;BME280;37364;46.974;18.916;2024-01-15T10:44:26;150823.50;;;1.87;100.00
51287;BME280;37364;46.974;18.916;2024-01-15T10:46:57;150815.78;;;1.84;100.00
51287;BME280;37364;46.974;18.916;2024-01-15T10:49:27;150804.22;;;1.80;100.00
51287;BME280;37364;46.974;18.916;2024-01-15T10:52:00;150815.78;;;1.84;100.00
51287;BME280;37364;46.974;18.916;2024-01-15T10:54:32;150772.09;;;1.67;100.00
51287;BME280;37364;46.974;18.916;2024-01-15T10:57:05;150781.06;;;1.70;100.00
51287;BME280;37364;46.974;18.916;2024-01-15T10:59:36;150778.50;;;1.69;100.00
51287;BME280;37364;46.974;18.916;2024-01-15T11:02:06;150786.19;;;1.72;100.00
51287;BME280;37364;46.974;18.916;2024-01-15T11:04:38;150783.66;;;1.71;100.00
51287;BME280;37364;46.974;18.916;2024-01-15T11:07:10;150772.09;;;1.67;100.00
51287;BME280;37364;46.974;18.916;2024-01-15T11:09:41;150775.91;;;1.68;100.00
51287;BME280;37364;46.974;18.916;2024-01-15T11:12:17;150765.63;;;1.64;100.00
51287;BME280;37364;46.974;18.916;2024-01-15T11:14:48;150760.47;;;1.62;100.00
51287;BME280;37364;46.974;18.916;2024-01-15T11:17:21;150733.50;;;1.51;100.00
51287;BME280;37364;46.974;18.916;2024-01-15T11:19:53;150718.06;;;1.45;100.00
51287;BME280;37364;46.974;18.916;2024-01-15T11:22:48;150705.19;;;1.40;100.00
51287;BME280;37364;46.974;18.916;2024-01-15T11:25:18;150710.34;;;1.42;100.00
51287;BME280;37364;46.974;18.916;2024-01-15T11:27:52;150730.91;;;1.50;100.00
51287;BME280;37364;46.974;18.916;2024-01-15T11:30:24;150727.03;;;1.49;100.00
51287;BME280;37364;46.974;18.916;2024-01-15T11:32:57;150751.47;;;1.58;100.00
51287;BME280;37364;46.974;18.916;2024-01-15T11:35:48;150833.78;;;1.91;100.00
51287;BME280;37364;46.974;18.916;2024-01-15T11:38:27;150907.13;;;2.21;100.00
51287;BME280;37364;46.974;18.916;2024-01-15T11:40:59;151022.97;;;2.67;100.00
51287;BME280;37364;46.974;18.916;2024-01-15T11:43:32;151044.81;;;2.75;100.00
51287;BME280;37364;46.974;18.916;2024-01-15T11:46:03;151140.06;;;3.13;100.00
51287;BME280;37364;46.974;18.916;2024-01-15T11:48:42;151204.44;;;3.39;100.00
51287;BME280;37364;46.974;18.916;2024-01-15T11:51:16;151248.25;;;3.56;100.00
51287;BME280;37364;46.974;18.916;2024-01-15T11:53:51;151279.19;;;3.69;100.00
51287;BME280;37364;46.974;18.916;2024-01-15T11:56:24;151315.25;;;3.83;100.00
51287;BME280;37364;46.974;18.916;2024-01-15T11:58:58;151312.66;;;3.82;100.00
51287;BME280;37364;46.974;18.916;2024-01-15T12:01:31;151335.84;;;3.91;100.00
51287;BME280;37364;46.974;18.916;2024-01-15T12:04:02;151369.34;;;4.05;100.00
51287;BME280;37364;46.974;18.916;2024-01-15T12:06:34;151378.38;;;4.08;98.30
51287;BME280;37364;46.974;18.916;2024-01-15T12:09:08;151370.63;;;4.05;99.16
51287;BME280;37364;46.974;18.916;2024-01-15T12:11:41;151375.78;;;4.07;97.72
51287;BME280;37364;46.974;18.916;2024-01-15T12:14:18;151405.41;;;4.19;96.99
51287;BME280;37364;46.974;18.916;2024-01-15T12:16:49;151415.72;;;4.23;98.73
51287;BME280;37364;46.974;18.916;2024-01-15T12:19:19;151417.06;;;4.24;98.46
51287;BME280;37364;46.974;18.916;2024-01-15T12:21:50;151415.72;;;4.23;97.67
51287;BME280;37364;46.974;18.916;2024-01-15T12:24:21;151432.50;;;4.30;94.61
51287;BME280;37364;46.974;18.916;2024-01-15T12:26:51;151423.47;;;4.26;95.91
51287;BME280;37364;46.974;18.916;2024-01-15T12:29:25;151444.09;;;4.34;96.30
51287;BME280;37364;46.974;18.916;2024-01-15T12:31:55;151444.09;;;4.34;92.09
51287;BME280;37364;46.974;18.916;2024-01-15T12:34:28;151453.13;;;4.38;91.17
51287;BME280;37364;46.974;18.916;2024-01-15T12:37:00;151453.13;;;4.38;92.46
51287;BME280;37364;46.974;18.916;2024-01-15T12:39:30;151508.53;;;4.60;87.81
51287;BME280;37364;46.974;18.916;2024-01-15T12:42:00;151486.63;;;4.51;87.96
51287;BME280;37364;46.974;18.916;2024-01-15T12:44:34;151487.91;;;4.52;89.44
51287;BME280;37364;46.974;18.916;2024-01-15T12:47:05;151490.50;;;4.53;89.07
51287;BME280;37364;46.974;18.916;2024-01-15T12:49:38;151472.44;;;4.46;86.80
51287;BME280;37364;46.974;18.916;2024-01-15T12:52:14;151440.22;;;4.33;87.49